createdAt,value
2018-06-15T00:00:03.432Z,15.90
2018-06-15T00:02:33.060Z,15.80
2018-06-15T00:05:01.459Z,15.90
2018-06-15T00:07:29.880Z,15.80
2018-06-15T00:09:58.697Z,15.80
2018-06-15T00:12:27.040Z,15.90
2018-06-15T00:14:55.427Z,15.90
2018-06-15T00:17:23.739Z,15.90
2018-06-15T00:19:52.027Z,15.90
2018-06-15T00:22:20.367Z,15.90
2018-06-15T00:24:48.665Z,15.90
2018-06-15T00:27:16.983Z,15.80
2018-06-15T00:29:45.262Z,15.80
2018-06-15T00:32:13.560Z,15.80
2018-06-15T00:34:41.882Z,15.80
2018-06-15T00:37:10.163Z,15.80
2018-06-15T00:39:38.519Z,15.80
2018-06-15T00:42:06.819Z,15.70
2018-06-15T00:44:35.101Z,15.80
2018-06-15T00:47:03.390Z,15.70
2018-06-15T00:49:31.688Z,15.70
2018-06-15T00:51:59.969Z,15.70
2018-06-15T00:54:28.299Z,15.70
2018-06-15T00:57:08.067Z,15.70
2018-06-15T00:59:36.359Z,15.70
2018-06-15T01:02:04.714Z,15.60
2018-06-15T01:04:33.020Z,15.70
2018-06-15T01:07:01.307Z,15.70
2018-06-15T01:09:29.575Z,15.70
2018-06-15T01:11:57.851Z,15.70
2018-06-15T01:14:26.158Z,15.70
2018-06-15T01:16:54.448Z,15.80
2018-06-15T01:19:22.859Z,15.70
2018-06-15T01:21:51.141Z,15.70
2018-06-15T01:24:19.506Z,15.60
2018-06-15T01:26:47.804Z,15.60
2018-06-15T01:29:16.121Z,15.50
2018-06-15T01:31:44.445Z,15.40
2018-06-15T01:34:12.771Z,15.40
2018-06-15T01:36:41.131Z,15.20
2018-06-15T01:39:10.655Z,15.20
2018-06-15T01:41:39.011Z,15.10
2018-06-15T01:44:07.276Z,15.00
2018-06-15T01:46:35.792Z,15.00
2018-06-15T01:49:04.068Z,14.90
2018-06-15T01:51:32.334Z,14.80
2018-06-15T01:54:00.617Z,14.80
2018-06-15T01:56:28.882Z,14.80
2018-06-15T01:58:57.125Z,14.80
2018-06-15T02:01:25.496Z,14.70
2018-06-15T02:03:53.712Z,14.60
2018-06-15T02:06:22.019Z,14.60
2018-06-15T02:08:50.343Z,14.50
2018-06-15T02:11:18.673Z,14.40
2018-06-15T02:13:47.000Z,14.40
2018-06-15T02:16:15.331Z,14.40
2018-06-15T02:18:43.667Z,14.30
2018-06-15T02:21:12.045Z,14.30
2018-06-15T02:23:40.339Z,14.30
2018-06-15T02:26:08.643Z,14.30
2018-06-15T02:28:36.939Z,14.30
2018-06-15T02:31:05.267Z,14.30
2018-06-15T02:33:33.612Z,14.30
2018-06-15T02:36:01.966Z,14.30
2018-06-15T02:38:30.281Z,14.30
2018-06-15T02:40:58.592Z,14.30
2018-06-15T02:43:26.912Z,14.20
2018-06-15T02:45:55.225Z,14.20
2018-06-15T02:48:23.529Z,14.10
2018-06-15T02:50:51.934Z,14.10
2018-06-15T02:53:20.266Z,14.10
2018-06-15T02:55:48.609Z,14.00
2018-06-15T02:58:16.934Z,13.90
2018-06-15T03:00:45.308Z,14.00
2018-06-15T03:03:13.743Z,14.00
2018-06-15T03:05:42.094Z,13.90
2018-06-15T03:08:10.453Z,13.90
2018-06-15T03:10:38.787Z,13.80
2018-06-15T03:13:07.114Z,13.80
2018-06-15T03:15:35.477Z,13.70
2018-06-15T03:18:03.748Z,13.70
2018-06-15T03:20:32.020Z,13.90
2018-06-15T03:23:00.385Z,14.00
2018-06-15T03:25:28.701Z,13.90
2018-06-15T03:27:57.014Z,13.70
2018-06-15T03:30:25.307Z,13.70
2018-06-15T03:32:53.619Z,13.60
2018-06-15T03:35:21.944Z,13.60
2018-06-15T03:37:50.260Z,13.50
2018-06-15T03:40:18.579Z,13.50
2018-06-15T03:42:46.993Z,13.40
2018-06-15T03:45:15.342Z,13.40
2018-06-15T03:47:43.714Z,13.40
2018-06-15T03:50:11.997Z,13.40
2018-06-15T03:52:40.339Z,13.50
2018-06-15T03:55:08.640Z,13.50
2018-06-15T03:57:36.946Z,13.60
2018-06-15T04:00:05.294Z,13.60
2018-06-15T04:02:34.335Z,13.80
2018-06-15T04:05:02.643Z,13.90
2018-06-15T04:07:31.313Z,14.00
2018-06-15T04:09:59.588Z,14.20
2018-06-15T04:12:27.919Z,14.20
2018-06-15T04:14:56.311Z,14.30
2018-06-15T04:17:24.703Z,14.30
2018-06-15T04:19:52.985Z,14.40
2018-06-15T04:22:21.279Z,14.40
2018-06-15T04:27:17.667Z,14.50
2018-06-15T04:29:45.949Z,14.60
2018-06-15T04:32:14.277Z,14.50
2018-06-15T04:34:42.580Z,14.30
2018-06-15T04:37:10.841Z,14.20
2018-06-15T04:39:39.305Z,14.20
2018-06-15T04:42:07.753Z,14.10
2018-06-15T04:44:36.080Z,14.10
2018-06-15T04:47:04.581Z,14.10
2018-06-15T04:49:33.072Z,14.10
2018-06-15T04:52:01.504Z,14.20
2018-06-15T04:54:30.069Z,14.30
2018-06-15T04:56:58.381Z,14.40
2018-06-15T04:59:26.712Z,14.60
2018-06-15T05:01:55.077Z,14.70
2018-06-15T05:04:23.512Z,14.70
2018-06-15T05:06:51.808Z,14.70
2018-06-15T05:09:20.224Z,14.60
2018-06-15T05:11:48.515Z,14.60
2018-06-15T05:14:16.828Z,14.60
2018-06-15T05:16:45.246Z,14.60
2018-06-15T05:19:14.564Z,14.60
2018-06-15T05:21:42.965Z,14.60
2018-06-15T05:24:11.435Z,14.70
2018-06-15T05:26:39.788Z,14.90
2018-06-15T05:29:08.136Z,14.80
2018-06-15T05:31:36.587Z,14.90
2018-06-15T05:34:05.649Z,14.90
2018-06-15T05:36:34.003Z,15.10
2018-06-15T05:39:02.401Z,15.10
2018-06-15T05:41:30.720Z,15.10
2018-06-15T05:43:59.124Z,15.10
2018-06-15T05:46:27.656Z,15.10
2018-06-15T05:48:56.112Z,15.20
2018-06-15T05:51:24.569Z,15.20
2018-06-15T05:53:52.977Z,15.30
2018-06-15T05:56:21.324Z,15.50
2018-06-15T05:58:49.764Z,15.60
2018-06-15T06:01:18.136Z,15.80
2018-06-15T06:03:46.514Z,15.90
2018-06-15T06:06:14.915Z,16.00
2018-06-15T06:08:43.295Z,16.10
2018-06-15T06:13:39.809Z,16.40
2018-06-15T06:16:08.254Z,16.50
2018-06-15T06:18:36.619Z,16.50
2018-06-15T06:21:05.037Z,16.70
2018-06-15T06:23:33.396Z,16.90
2018-06-15T06:26:01.759Z,16.90
2018-06-15T06:28:30.080Z,16.80
2018-06-15T06:30:58.644Z,16.80
2018-06-15T06:33:27.093Z,16.80
2018-06-15T06:35:55.565Z,16.80
2018-06-15T06:38:25.911Z,16.80
2018-06-15T06:40:54.354Z,16.90
2018-06-15T06:43:22.761Z,17.20
2018-06-15T06:48:19.305Z,17.90
2018-06-15T06:50:47.845Z,18.30
2018-06-15T06:53:16.253Z,19.00
2018-06-15T06:55:44.709Z,19.50
2018-06-15T06:58:13.132Z,20.10
2018-06-15T07:00:41.612Z,20.80
2018-06-15T07:05:38.157Z,21.00
2018-06-15T07:08:06.630Z,20.90
2018-06-15T07:10:35.037Z,21.00
2018-06-15T07:13:03.445Z,20.90
2018-06-15T07:15:31.893Z,21.00
2018-06-15T07:18:00.287Z,20.90
2018-06-15T07:20:28.771Z,21.00
2018-06-15T07:22:57.188Z,21.20
2018-06-15T07:25:25.637Z,21.40
2018-06-15T07:27:54.173Z,21.30
2018-06-15T07:30:22.611Z,21.30
2018-06-15T07:32:51.044Z,21.30
2018-06-15T07:35:19.528Z,21.20
2018-06-15T07:37:47.943Z,21.20
2018-06-15T07:40:16.415Z,21.20
2018-06-15T07:42:44.877Z,21.30
2018-06-15T07:45:13.316Z,21.40
2018-06-15T07:47:41.856Z,21.40
2018-06-15T07:50:10.288Z,21.60
2018-06-15T07:52:38.725Z,21.80
2018-06-15T07:55:07.104Z,22.10
2018-06-15T07:57:35.594Z,22.30
2018-06-15T08:00:04.026Z,22.70
2018-06-15T08:02:32.403Z,22.90
2018-06-15T08:05:00.853Z,23.50
2018-06-15T08:07:29.308Z,23.80
2018-06-15T08:09:57.703Z,24.00
2018-06-15T08:12:26.156Z,24.10
2018-06-15T08:14:54.532Z,24.30
2018-06-15T08:17:22.888Z,24.20
2018-06-15T08:19:51.271Z,24.30
2018-06-15T08:22:19.688Z,24.50
2018-06-15T08:24:48.062Z,24.40
2018-06-15T08:27:16.496Z,24.30
2018-06-15T08:29:44.772Z,24.40
2018-06-15T08:32:13.124Z,24.90
2018-06-15T08:34:41.568Z,24.90
2018-06-15T08:37:09.953Z,25.20
2018-06-15T08:39:38.345Z,25.50
2018-06-15T08:42:06.728Z,25.60
2018-06-15T08:44:35.172Z,26.00
2018-06-15T08:47:03.561Z,25.60
2018-06-15T08:49:31.963Z,25.50
2018-06-15T08:52:00.348Z,25.30
2018-06-15T08:54:28.724Z,25.20
2018-06-15T08:56:57.164Z,25.20
2018-06-15T08:59:25.504Z,25.20
2018-06-15T09:01:53.910Z,25.10
2018-06-15T09:04:22.278Z,25.00
2018-06-15T09:06:50.667Z,25.00
2018-06-15T09:09:19.035Z,24.80
2018-06-15T09:11:47.385Z,24.50
2018-06-15T09:14:15.838Z,24.40
2018-06-15T09:16:44.200Z,24.30
2018-06-15T09:19:12.787Z,23.90
2018-06-15T09:21:41.209Z,23.70
2018-06-15T09:24:09.628Z,23.70
2018-06-15T09:26:38.112Z,23.60
2018-06-15T09:29:06.511Z,23.60
2018-06-15T09:34:02.996Z,24.20
2018-06-15T09:36:31.380Z,24.60
2018-06-15T09:38:59.775Z,24.90
2018-06-15T09:41:28.147Z,25.50
2018-06-15T09:43:56.880Z,25.90
2018-06-15T09:46:26.167Z,25.90
2018-06-15T09:48:54.540Z,25.60
2018-06-15T09:51:22.969Z,25.30
2018-06-15T09:53:51.328Z,25.20
2018-06-15T09:56:19.680Z,25.10
2018-06-15T09:58:52.664Z,25.00
2018-06-15T10:01:21.279Z,24.70
2018-06-15T10:03:49.721Z,24.50
2018-06-15T10:06:18.305Z,24.40
2018-06-15T10:08:46.844Z,24.40
2018-06-15T10:11:15.437Z,24.30
2018-06-15T10:13:43.893Z,24.30
2018-06-15T10:18:40.376Z,24.50
2018-06-15T10:21:09.028Z,24.40
2018-06-15T10:23:37.360Z,24.20
2018-06-15T10:26:06.905Z,24.30
2018-06-15T10:28:35.241Z,24.30
2018-06-15T10:31:03.761Z,24.30
2018-06-15T10:33:32.077Z,24.40
2018-06-15T10:36:00.556Z,24.60
2018-06-15T10:38:28.917Z,24.50
2018-06-15T10:40:57.229Z,24.60
2018-06-15T10:43:25.608Z,24.70
2018-06-15T10:45:53.970Z,24.70
2018-06-15T10:48:22.212Z,24.90
2018-06-15T10:50:50.451Z,24.90
2018-06-15T10:53:19.333Z,25.00
2018-06-15T10:55:47.921Z,25.40
2018-06-15T10:58:18.624Z,25.60
2018-06-15T11:00:47.362Z,26.10
2018-06-15T11:03:15.929Z,26.50
2018-06-15T11:05:44.381Z,26.80
2018-06-15T11:08:12.901Z,27.00
2018-06-15T11:10:41.329Z,27.20
2018-06-15T11:13:09.720Z,27.40
2018-06-15T11:15:38.188Z,27.30
2018-06-15T11:18:06.786Z,27.10
2018-06-15T11:20:35.361Z,27.00
2018-06-15T11:23:03.769Z,27.20
2018-06-15T11:25:35.146Z,27.20
2018-06-15T11:28:03.570Z,27.20
2018-06-15T11:30:36.387Z,27.40
2018-06-15T11:33:07.919Z,27.50
2018-06-15T11:35:36.289Z,27.50
2018-06-15T11:38:04.759Z,27.50
2018-06-15T11:40:33.129Z,27.20
2018-06-15T11:45:29.719Z,26.80
2018-06-15T11:47:58.625Z,26.60
2018-06-15T11:50:27.108Z,26.70
2018-06-15T11:52:55.677Z,26.80
2018-06-15T11:55:24.202Z,26.80
2018-06-15T11:58:13.700Z,26.70
2018-06-15T12:00:53.674Z,26.50
2018-06-15T12:03:22.927Z,26.60
2018-06-15T12:05:51.393Z,26.50
2018-06-15T12:08:19.929Z,26.40
2018-06-15T12:10:49.000Z,26.30
2018-06-15T12:13:17.448Z,26.20
2018-06-15T12:15:45.967Z,26.20
2018-06-15T12:18:14.402Z,25.90
2018-06-15T12:20:42.869Z,25.80
2018-06-15T12:23:11.516Z,25.70
2018-06-15T12:25:39.996Z,25.80
2018-06-15T12:28:08.427Z,25.80
2018-06-15T12:30:37.057Z,25.80
2018-06-15T12:33:05.572Z,25.60
2018-06-15T12:35:34.100Z,25.60
2018-06-15T12:38:02.671Z,25.60
2018-06-15T12:40:31.168Z,25.70
2018-06-15T12:42:59.724Z,25.80
2018-06-15T12:45:28.195Z,25.90
2018-06-15T12:47:56.704Z,25.90
2018-06-15T12:50:25.245Z,25.90
2018-06-15T12:52:53.720Z,25.80
2018-06-15T12:55:22.202Z,25.70
2018-06-15T12:57:50.857Z,25.70
2018-06-15T13:00:19.303Z,25.60
2018-06-15T13:02:47.787Z,25.60
2018-06-15T13:05:16.279Z,25.60
2018-06-15T13:07:44.729Z,25.60
2018-06-15T13:10:13.311Z,25.50
2018-06-15T13:12:41.784Z,25.50
2018-06-15T13:15:10.220Z,25.40
2018-06-15T13:17:45.700Z,25.40
2018-06-15T13:20:14.161Z,25.30
2018-06-15T13:22:42.593Z,25.20
2018-06-15T13:25:10.942Z,25.20
2018-06-15T13:27:39.344Z,25.20
2018-06-15T13:30:07.753Z,25.20
2018-06-15T13:32:36.125Z,25.20
2018-06-15T13:35:04.716Z,25.20
2018-06-15T13:37:33.199Z,25.30
2018-06-15T13:40:01.705Z,25.30
2018-06-15T13:42:30.192Z,25.40
2018-06-15T13:44:58.596Z,25.30
2018-06-15T13:47:27.668Z,25.40
2018-06-15T13:49:56.068Z,25.40
2018-06-15T13:52:24.433Z,25.20
2018-06-15T13:54:53.168Z,25.20
2018-06-15T13:57:21.557Z,25.20
2018-06-15T13:59:50.733Z,25.20
2018-06-15T14:02:19.128Z,25.20
2018-06-15T14:04:47.562Z,25.20
2018-06-15T14:07:15.989Z,25.30
2018-06-15T14:09:44.502Z,25.30
2018-06-15T14:12:13.691Z,25.30
2018-06-15T14:14:42.318Z,25.20
2018-06-15T14:17:10.620Z,25.20
2018-06-15T14:19:39.057Z,25.10
2018-06-15T14:22:07.605Z,25.10
2018-06-15T14:24:35.993Z,25.10
2018-06-15T14:27:16.074Z,25.10
2018-06-15T14:29:44.465Z,25.10
2018-06-15T14:32:12.872Z,25.00
2018-06-15T14:34:41.263Z,25.00
2018-06-15T14:37:09.723Z,24.90
2018-06-15T14:39:38.156Z,24.90
2018-06-15T14:42:06.557Z,24.80
2018-06-15T14:44:35.009Z,24.80
2018-06-15T14:47:03.492Z,24.70
2018-06-15T14:49:31.974Z,24.70
2018-06-15T14:52:00.403Z,24.70
2018-06-15T14:54:28.795Z,24.70
2018-06-15T14:56:57.258Z,24.70
2018-06-15T14:59:25.694Z,24.70
2018-06-15T15:01:54.104Z,24.70
2018-06-15T15:04:22.513Z,24.70
2018-06-15T15:06:50.909Z,24.60
2018-06-15T15:09:19.324Z,24.60
2018-06-15T15:11:47.735Z,24.60
2018-06-15T15:14:16.158Z,24.60
2018-06-15T15:16:44.586Z,24.50
2018-06-15T15:19:13.052Z,24.50
2018-06-15T15:21:41.416Z,24.40
2018-06-15T15:26:38.085Z,24.50
2018-06-15T15:29:06.604Z,24.50
2018-06-15T15:31:35.056Z,24.50
2018-06-15T15:34:03.577Z,24.40
2018-06-15T15:36:32.096Z,24.50
2018-06-15T15:39:00.542Z,24.50
2018-06-15T15:41:28.996Z,24.40
2018-06-15T15:43:57.440Z,24.50
2018-06-15T15:46:25.873Z,24.50
2018-06-15T15:48:54.488Z,24.50
2018-06-15T15:51:22.934Z,24.60
2018-06-15T15:53:51.393Z,24.60
2018-06-15T15:56:19.826Z,24.60
2018-06-15T15:58:48.339Z,24.60
2018-06-15T16:01:16.802Z,24.50
2018-06-15T16:03:45.158Z,24.40
2018-06-15T16:06:13.658Z,24.30
2018-06-15T16:08:42.248Z,24.20
2018-06-15T16:11:10.519Z,24.10
2018-06-15T16:13:38.776Z,24.00
2018-06-15T16:16:07.703Z,24.00
2018-06-15T16:18:35.973Z,23.90
2018-06-15T16:21:06.481Z,24.00
2018-06-15T16:23:34.918Z,24.00
2018-06-15T16:26:03.216Z,24.00
2018-06-15T16:28:31.472Z,24.00
2018-06-15T16:31:00.027Z,24.10
2018-06-15T16:33:28.396Z,24.10
2018-06-15T16:35:56.825Z,24.20
2018-06-15T16:38:25.347Z,24.30
2018-06-15T16:40:53.669Z,24.30
2018-06-15T16:43:22.407Z,24.30
2018-06-15T16:45:50.987Z,24.20
2018-06-15T16:50:47.504Z,24.20
2018-06-15T16:53:15.884Z,24.20
2018-06-15T16:55:44.288Z,24.30
2018-06-15T16:58:12.863Z,24.30
2018-06-15T17:00:41.129Z,24.40
2018-06-15T17:03:09.845Z,24.40
2018-06-15T17:05:38.241Z,24.40
2018-06-15T17:08:06.627Z,24.50
2018-06-15T17:10:35.096Z,24.40
2018-06-15T17:13:03.498Z,24.40
2018-06-15T17:18:00.064Z,24.70
2018-06-15T17:20:28.597Z,24.80
2018-06-15T17:22:57.015Z,24.80
2018-06-15T17:25:25.415Z,24.70
2018-06-15T17:27:53.871Z,24.60
2018-06-15T17:32:50.559Z,24.30
2018-06-15T17:35:19.071Z,24.10
2018-06-15T17:37:47.715Z,24.00
2018-06-15T17:40:16.292Z,24.00
2018-06-15T17:42:44.822Z,23.80
2018-06-15T17:45:13.393Z,23.70
2018-06-15T17:47:41.945Z,23.70
2018-06-15T17:50:10.541Z,23.70
2018-06-15T17:52:41.325Z,23.60
2018-06-15T17:55:09.978Z,23.60
2018-06-15T17:57:38.500Z,23.40
2018-06-15T18:00:07.226Z,23.40
2018-06-15T18:02:36.118Z,23.30
2018-06-15T18:05:04.738Z,23.20
2018-06-15T18:07:33.322Z,23.20
2018-06-15T18:10:01.957Z,23.10
2018-06-15T18:12:30.514Z,23.00
2018-06-15T18:14:59.136Z,23.00
2018-06-15T18:17:27.640Z,23.00
2018-06-15T18:19:56.058Z,23.00
2018-06-15T18:22:24.441Z,23.00
2018-06-15T18:24:53.174Z,22.90
2018-06-15T18:27:21.523Z,22.80
2018-06-15T18:29:50.229Z,22.80
2018-06-15T18:32:19.207Z,22.80
2018-06-15T18:34:47.697Z,22.70
2018-06-15T18:37:16.062Z,22.70
2018-06-15T18:39:44.367Z,22.60
2018-06-15T18:42:12.599Z,22.60
2018-06-15T18:44:40.864Z,22.50
2018-06-15T18:47:09.223Z,22.50
2018-06-15T18:49:37.484Z,22.50
2018-06-15T18:52:07.543Z,22.40
2018-06-15T18:54:35.963Z,22.30
2018-06-15T18:57:04.433Z,22.20
2018-06-15T18:59:33.989Z,22.20
2018-06-15T19:02:03.945Z,22.10
2018-06-15T19:04:33.647Z,22.00
2018-06-15T19:07:01.903Z,21.90
2018-06-15T19:09:30.517Z,21.80
2018-06-15T19:11:59.190Z,21.70
2018-06-15T19:14:27.644Z,21.60
2018-06-15T19:16:56.163Z,21.50
2018-06-15T19:19:24.678Z,21.40
2018-06-15T19:21:53.249Z,21.40
2018-06-15T19:24:21.771Z,21.30
2018-06-15T19:26:50.438Z,21.30
2018-06-15T19:29:19.876Z,21.20
2018-06-15T19:31:50.185Z,21.10
2018-06-15T19:34:22.246Z,21.00
2018-06-15T19:36:52.341Z,20.80
2018-06-15T19:39:20.827Z,20.70
2018-06-15T19:41:49.321Z,20.60
2018-06-15T19:44:17.757Z,20.60
2018-06-15T19:46:46.237Z,20.70
2018-06-15T19:49:14.627Z,20.70
2018-06-15T19:51:43.092Z,20.50
2018-06-15T19:54:11.768Z,20.50
2018-06-15T19:59:08.298Z,20.30
2018-06-15T20:01:36.700Z,20.30
2018-06-15T20:04:05.172Z,20.30
2018-06-15T20:06:33.574Z,20.20
2018-06-15T20:09:02.054Z,20.10
2018-06-15T20:11:30.708Z,19.90
2018-06-15T20:13:59.063Z,20.00
2018-06-15T20:16:27.437Z,19.90
2018-06-15T20:18:55.872Z,19.90
2018-06-15T20:21:24.244Z,19.90
2018-06-15T20:23:52.555Z,19.90
2018-06-15T20:26:20.917Z,19.90
2018-06-15T20:28:49.374Z,19.80
2018-06-15T20:31:17.735Z,19.70
2018-06-15T20:33:46.082Z,19.70
2018-06-15T20:36:14.647Z,19.70
2018-06-15T20:38:42.964Z,19.70
2018-06-15T20:41:11.347Z,19.70
2018-06-15T20:43:39.741Z,19.60
2018-06-15T20:46:08.012Z,19.60
2018-06-15T20:48:36.736Z,19.50
2018-06-15T20:51:05.248Z,19.50
2018-06-15T20:53:33.568Z,19.50
2018-06-15T20:56:01.939Z,19.40
2018-06-15T20:58:30.350Z,19.30
2018-06-15T21:00:58.874Z,19.30
2018-06-15T21:03:27.335Z,19.30
2018-06-15T21:05:55.854Z,19.30
2018-06-15T21:08:24.217Z,19.20
2018-06-15T21:10:52.593Z,19.20
2018-06-15T21:13:20.996Z,19.10
2018-06-15T21:15:49.415Z,19.10
2018-06-15T21:18:17.756Z,19.10
2018-06-15T21:20:46.162Z,19.10
2018-06-15T21:23:14.660Z,19.10
2018-06-15T21:25:42.947Z,19.10
2018-06-15T21:28:11.287Z,19.20
2018-06-15T21:30:39.635Z,19.10
2018-06-15T21:33:07.952Z,19.10
2018-06-15T21:35:36.268Z,19.10
2018-06-15T21:38:04.897Z,19.00
2018-06-15T21:40:33.196Z,19.00
2018-06-15T21:43:01.573Z,18.90
2018-06-15T21:45:29.917Z,18.90
2018-06-15T21:47:58.242Z,18.80
2018-06-15T21:50:26.590Z,18.80
2018-06-15T21:52:55.026Z,18.80
2018-06-15T21:55:23.332Z,18.70
2018-06-15T21:57:51.658Z,18.60
2018-06-15T22:02:48.033Z,18.40
2018-06-15T22:05:16.453Z,18.40
2018-06-15T22:07:44.752Z,18.40
2018-06-15T22:10:13.039Z,18.40
2018-06-15T22:12:41.360Z,18.30
2018-06-15T22:15:09.681Z,18.10
2018-06-15T22:17:38.054Z,18.10
2018-06-15T22:20:06.465Z,18.00
2018-06-15T22:22:34.744Z,17.90
2018-06-15T22:25:03.069Z,17.90
2018-06-15T22:27:31.380Z,17.90
2018-06-15T22:29:59.810Z,17.80
2018-06-15T22:32:28.093Z,17.70
2018-06-15T22:34:56.536Z,17.60
2018-06-15T22:37:24.960Z,17.50
2018-06-15T22:39:53.283Z,17.50
2018-06-15T22:42:21.627Z,17.50
2018-06-15T22:44:49.966Z,17.40
2018-06-15T22:47:18.267Z,17.30
2018-06-15T22:49:46.712Z,17.40
2018-06-15T22:52:15.036Z,17.50
2018-06-15T22:54:43.415Z,17.50
2018-06-15T22:57:11.699Z,17.50
2018-06-15T22:59:40.028Z,17.60
2018-06-15T23:02:08.358Z,17.60
2018-06-15T23:04:36.681Z,17.60
2018-06-15T23:07:05.089Z,17.70
2018-06-15T23:09:33.396Z,17.80
2018-06-15T23:12:01.725Z,17.70
2018-06-15T23:14:30.105Z,17.70
2018-06-15T23:16:59.004Z,17.60
2018-06-15T23:19:27.332Z,17.60
2018-06-15T23:21:55.758Z,17.60
2018-06-15T23:24:24.153Z,17.50
2018-06-15T23:26:52.736Z,17.40
2018-06-15T23:29:21.063Z,17.40
2018-06-15T23:31:49.428Z,17.30
2018-06-15T23:34:17.748Z,17.30
2018-06-15T23:36:46.037Z,17.40
2018-06-15T23:39:14.424Z,17.30
2018-06-15T23:41:42.728Z,17.20
2018-06-15T23:44:11.034Z,17.20
2018-06-15T23:46:39.311Z,17.20
2018-06-15T23:49:07.760Z,17.30
2018-06-15T23:51:36.079Z,17.20
2018-06-15T23:54:04.428Z,17.10
2018-06-15T23:56:32.744Z,17.10
2018-06-15T23:59:01.084Z,17.10
